Time;durP1;ratioP1;P1;durP2;ratioP2;P2;SDS_P1;SDS_P2;PMS_P1;PMS_P2;Temp;Humidity;BMP_temperature;BMP_pressure;BME280_temperature;BME280_humidity;BME280_pressure;Samples;Min_cycle;Max_cycle;Signal;HPM_P1;HPM_P2
2021/12/24 00:00:19;;;;;;;85.10;49.60;;;;;;;;;;4994681;28;20066;-78
2021/12/24 00:03:01;;;;;;;90.53;48.67;;;;;;;;;;4976898;28;20042;-78
2021/12/24 00:05:29;;;;;;;89.88;51.20;;;;;;;;;;4977251;28;20089;-78
2021/12/24 00:15:23;;;;;;;79.35;45.28;;;;;;;;;;4976892;28;20093;-79
2021/12/24 00:18:04;;;;;;;74.40;44.20;;;;;;;;;;4976309;28;20078;-79
2021/12/24 00:37:28;;;;;;;82.38;49.20;;;;;;;;;;4993763;28;20073;-78
2021/12/24 00:42:56;;;;;;;82.80;47.83;;;;;;;;;;4993488;28;20054;-78
2021/12/24 00:45:29;;;;;;;78.13;43.58;;;;;;;;;;4976278;28;20073;-78
2021/12/24 00:47:59;;;;;;;83.13;44.35;;;;;;;;;;4993878;28;20074;-78
2021/12/24 00:50:34;;;;;;;79.13;45.50;;;;;;;;;;4976390;28;20047;-78
2021/12/24 00:53:02;;;;;;;80.05;45.90;;;;;;;;;;4993832;28;20532;-77
2021/12/24 00:55:34;;;;;;;78.00;44.17;;;;;;;;;;4993956;28;20038;-77
2021/12/24 00:58:04;;;;;;;83.25;46.88;;;;;;;;;;4993489;28;20046;-80
2021/12/24 01:00:39;;;;;;;90.97;48.22;;;;;;;;;;4993755;28;20517;-79
2021/12/24 01:03:11;;;;;;;91.75;49.03;;;;;;;;;;4976766;28;20048;-79
2021/12/24 01:05:41;;;;;;;82.78;48.50;;;;;;;;;;4992365;28;20059;-79
2021/12/24 01:08:11;;;;;;;85.70;48.55;;;;;;;;;;4992328;28;20042;-78
2021/12/24 01:10:49;;;;;;;92.28;49.65;;;;;;;;;;4993639;28;20068;-78
2021/12/24 01:13:19;;;;;;;89.13;47.67;;;;;;;;;;4993759;28;20050;-78
2021/12/24 01:16:03;;;;;;;83.72;47.30;;;;;;;;;;4993768;28;20062;-79
2021/12/24 01:24:12;;;;;;;92.10;49.30;;;;;;;;;;4971435;28;20050;-78
2021/12/24 01:27:23;;;;;;;85.72;48.80;;;;;;;;;;4976360;28;20094;-78
2021/12/24 01:45:38;;;;;;;94.82;51.30;;;;;;;;;;4975824;28;20050;-78
2021/12/24 01:48:32;;;;;;;90.78;50.88;;;;;;;;;;4975163;28;20042;-78
2021/12/24 01:51:00;;;;;;;95.47;52.05;;;;;;;;;;4975694;28;20039;-77
2021/12/24 01:53:43;;;;;;;94.80;51.05;;;;;;;;;;4992404;28;20058;-78
2021/12/24 01:56:14;;;;;;;101.75;54.75;;;;;;;;;;4996581;28;20109;-77
2021/12/24 01:58:43;;;;;;;99.35;55.85;;;;;;;;;;4995398;28;20053;-78
2021/12/24 02:01:13;;;;;;;96.90;54.35;;;;;;;;;;4979050;28;20066;-78
2021/12/24 02:03:41;;;;;;;97.90;55.58;;;;;;;;;;4996691;28;20104;-78
2021/12/24 02:06:10;;;;;;;101.25;56.35;;;;;;;;;;4962858;28;20038;-78
2021/12/24 02:11:53;;;;;;;94.70;53.85;;;;;;;;;;4978244;28;20138;-78
2021/12/24 02:14:34;;;;;;;99.38;54.50;;;;;;;;;;4978134;28;20046;-78
2021/12/24 02:30:49;;;;;;;85.70;50.53;;;;;;;;;;4978435;28;20544;-78
2021/12/24 02:33:17;;;;;;;87.85;50.53;;;;;;;;;;4994495;28;20073;-78
2021/12/24 02:35:46;;;;;;;79.07;44.55;;;;;;;;;;4978292;28;20418;-78
2021/12/24 02:38:18;;;;;;;71.38;40.53;;;;;;;;;;4996456;28;20508;-78
2021/12/24 02:40:48;;;;;;;65.43;38.40;;;;;;;;;;4994615;28;20057;-78
2021/12/24 02:43:21;;;;;;;65.60;39.10;;;;;;;;;;4978285;28;20082;-79
2021/12/24 02:45:53;;;;;;;63.03;37.72;;;;;;;;;;4978021;28;20077;-78
2021/12/24 02:54:00;;;;;;;94.10;51.63;;;;;;;;;;4978097;28;20086;-78
2021/12/24 02:56:37;;;;;;;101.78;56.47;;;;;;;;;;4995631;28;20099;-78
2021/12/24 02:59:12;;;;;;;101.55;56.10;;;;;;;;;;4993880;28;20054;-79
2021/12/24 03:01:42;;;;;;;97.75;54.88;;;;;;;;;;4978054;28;20457;-78
2021/12/24 03:04:11;;;;;;;83.00;47.28;;;;;;;;;;4961906;28;20046;-78
2021/12/24 03:06:43;;;;;;;77.82;45.08;;;;;;;;;;4994034;28;20034;-79
2021/12/24 03:09:15;;;;;;;70.57;41.72;;;;;;;;;;4978013;28;20046;-79
2021/12/24 03:12:09;;;;;;;73.45;44.53;;;;;;;;;;4994097;28;20066;-78
2021/12/24 03:14:42;;;;;;;72.00;43.55;;;;;;;;;;4995315;28;20417;-78
2021/12/24 03:23:43;;;;;;;74.28;42.08;;;;;;;;;;4977669;28;20050;-77
2021/12/24 03:26:12;;;;;;;78.47;43.70;;;;;;;;;;4977348;28;20539;-78
2021/12/24 03:28:44;;;;;;;72.32;43.67;;;;;;;;;;4994222;28;20042;-78
2021/12/24 03:31:16;;;;;;;83.80;46.15;;;;;;;;;;4977850;28;20417;-78
2021/12/24 03:33:53;;;;;;;82.38;47.95;;;;;;;;;;4994738;28;20108;-78
2021/12/24 03:36:22;;;;;;;82.22;48.05;;;;;;;;;;4993498;28;20105;-79
2021/12/24 03:38:57;;;;;;;81.53;47.90;;;;;;;;;;4977749;28;20134;-79
2021/12/24 03:41:28;;;;;;;71.13;43.88;;;;;;;;;;4977041;28;20058;-78
2021/12/24 03:43:59;;;;;;;81.45;45.95;;;;;;;;;;4977320;28;20038;-79
2021/12/24 03:46:40;;;;;;;76.43;44.70;;;;;;;;;;4977546;28;20452;-79
2021/12/24 03:49:16;;;;;;;70.35;42.90;;;;;;;;;;4977151;28;20420;-79
2021/12/24 03:51:59;;;;;;;70.30;42.35;;;;;;;;;;4993189;28;20097;-78
2021/12/24 03:57:18;;;;;;;73.30;41.85;;;;;;;;;;4994758;28;20555;-78
2021/12/24 04:00:21;;;;;;;64.57;39.13;;;;;;;;;;4994357;28;20108;-78
2021/12/24 04:03:24;;;;;;;64.03;38.90;;;;;;;;;;4977276;28;20056;-79
2021/12/24 04:06:15;;;;;;;67.15;37.75;;;;;;;;;;4994390;28;20113;-79
2021/12/24 04:09:04;;;;;;;59.80;36.25;;;;;;;;;;4994270;28;20153;-80
2021/12/24 04:11:43;;;;;;;67.53;37.97;;;;;;;;;;4962118;28;20050;-79
2021/12/24 04:14:11;;;;;;;63.55;38.25;;;;;;;;;;4976580;28;20048;-78
2021/12/24 04:16:41;;;;;;;66.18;40.10;;;;;;;;;;4976202;28;20065;-78
2021/12/24 04:19:37;;;;;;;71.20;42.47;;;;;;;;;;4976622;28;20046;-78
2021/12/24 04:25:49;;;;;;;77.22;44.33;;;;;;;;;;4994021;28;20070;-78
2021/12/24 04:28:22;;;;;;;79.07;45.22;;;;;;;;;;4976050;28;20050;-78
2021/12/24 04:30:56;;;;;;;79.15;45.90;;;;;;;;;;4976660;28;20049;-78
2021/12/24 04:33:34;;;;;;;78.88;46.97;;;;;;;;;;4976134;28;20563;-78
2021/12/24 04:52:00;;;;;;;80.20;46.45;;;;;;;;;;4976391;28;20056;-79
2021/12/24 05:03:09;;;;;;;77.50;45.10;;;;;;;;;;4976516;28;20054;-78
2021/12/24 05:05:47;;;;;;;84.15;46.33;;;;;;;;;;4992044;28;20046;-78
2021/12/24 05:08:25;;;;;;;81.68;45.50;;;;;;;;;;4992246;28;20066;-78
2021/12/24 05:10:56;;;;;;;79.97;45.38;;;;;;;;;;4976130;28;20069;-78
2021/12/24 05:13:25;;;;;;;71.32;40.08;;;;;;;;;;4992443;28;20074;-78
2021/12/24 05:16:41;;;;;;;77.25;40.97;;;;;;;;;;4980510;28;20584;-79
2021/12/24 05:22:32;;;;;;;68.00;36.80;;;;;;;;;;4993641;28;20066;-79
2021/12/24 05:25:08;;;;;;;61.25;35.30;;;;;;;;;;4992059;28;20046;-78
2021/12/24 05:27:40;;;;;;;61.92;35.80;;;;;;;;;;4976588;28;20043;-78
2021/12/24 05:30:08;;;;;;;59.35;34.45;;;;;;;;;;4995983;28;20508;-78
2021/12/24 05:32:36;;;;;;;58.97;32.47;;;;;;;;;;4996817;28;20057;-78
2021/12/24 05:35:07;;;;;;;53.85;31.00;;;;;;;;;;4963450;28;20377;-78
2021/12/24 05:37:38;;;;;;;50.58;28.98;;;;;;;;;;4995894;28;20050;-77
2021/12/24 05:40:32;;;;;;;42.47;25.88;;;;;;;;;;4979553;28;20046;-77
2021/12/24 05:43:05;;;;;;;46.35;25.42;;;;;;;;;;4995804;28;20142;-78
2021/12/24 05:45:36;;;;;;;42.70;25.02;;;;;;;;;;4979178;28;20483;-78
2021/12/24 05:48:13;;;;;;;42.75;24.75;;;;;;;;;;4998603;28;20042;-78
2021/12/24 05:50:51;;;;;;;43.20;24.95;;;;;;;;;;5014843;28;20091;-78
2021/12/24 05:53:37;;;;;;;;;;;;;;;;;;5016876;28;20148;-71
2021/12/24 05:56:16;;;;;;;45.13;25.55;;;;;;;;;;5014708;28;19921;-71
2021/12/24 05:58:50;;;;;;;50.80;27.45;;;;;;;;;;5015236;28;20385;-71
2021/12/24 06:01:18;;;;;;;49.65;27.77;;;;;;;;;;4997996;28;20128;-71
2021/12/24 06:03:46;;;;;;;47.40;27.90;;;;;;;;;;4998424;28;20072;-70
2021/12/24 06:06:14;;;;;;;52.75;29.83;;;;;;;;;;5016286;28;20121;-71
2021/12/24 06:08:41;;;;;;;54.42;29.27;;;;;;;;;;4998102;28;20053;-70
2021/12/24 06:11:13;;;;;;;51.55;29.85;;;;;;;;;;5016028;28;20061;-70
2021/12/24 06:13:41;;;;;;;53.60;30.10;;;;;;;;;;4998353;28;20165;-71
2021/12/24 06:16:10;;;;;;;47.22;28.35;;;;;;;;;;5015535;28;20523;-70
2021/12/24 06:18:44;;;;;;;48.10;27.42;;;;;;;;;;4998741;28;20058;-70
2021/12/24 06:21:11;;;;;;;49.00;28.05;;;;;;;;;;5015705;28;20556;-70
2021/12/24 06:23:43;;;;;;;52.50;28.80;;;;;;;;;;4982106;28;20100;-70
2021/12/24 06:26:16;;;;;;;52.67;28.95;;;;;;;;;;4998109;28;20562;-70
2021/12/24 06:28:47;;;;;;;48.10;28.23;;;;;;;;;;5015657;28;20066;-72
2021/12/24 06:31:15;;;;;;;57.63;30.25;;;;;;;;;;5015111;28;20124;-70
2021/12/24 06:33:46;;;;;;;54.45;29.70;;;;;;;;;;4997756;28;20057;-71
2021/12/24 06:36:18;;;;;;;62.15;30.27;;;;;;;;;;4997935;28;20180;-72
2021/12/24 06:38:47;;;;;;;59.15;32.80;;;;;;;;;;4997851;28;20140;-72
2021/12/24 06:41:20;;;;;;;62.05;32.10;;;;;;;;;;4997193;28;20042;-71
2021/12/24 06:43:49;;;;;;;59.90;33.13;;;;;;;;;;5015102;28;20116;-71
2021/12/24 06:46:16;;;;;;;64.65;31.83;;;;;;;;;;5013767;28;20038;-71
2021/12/24 06:48:53;;;;;;;60.78;33.15;;;;;;;;;;5015676;28;20078;-71
2021/12/24 06:51:21;;;;;;;57.35;30.30;;;;;;;;;;4997769;28;20080;-71
2021/12/24 06:54:14;;;;;;;75.45;35.75;;;;;;;;;;4997727;28;20050;-71
2021/12/24 06:56:51;;;;;;;62.50;34.35;;;;;;;;;;4997578;28;20412;-74
2021/12/24 06:59:20;;;;;;;57.55;31.65;;;;;;;;;;4987224;28;20046;-74
2021/12/24 07:01:53;;;;;;;52.70;30.17;;;;;;;;;;4962342;28;20057;-74
2021/12/24 07:04:23;;;;;;;55.05;30.98;;;;;;;;;;4977981;28;20142;-74
2021/12/24 07:11:10;;;;;;;60.13;31.75;;;;;;;;;;4995463;28;20045;-72
2021/12/24 07:13:41;;;;;;;61.92;33.00;;;;;;;;;;4977748;28;20146;-71
2021/12/24 07:16:13;;;;;;;58.20;31.17;;;;;;;;;;4993529;28;20042;-71
2021/12/24 07:18:45;;;;;;;55.83;31.50;;;;;;;;;;4978434;28;20054;-71
2021/12/24 07:21:18;;;;;;;60.75;32.42;;;;;;;;;;4994190;28;20050;-71
2021/12/24 07:23:55;;;;;;;59.95;34.65;;;;;;;;;;4977886;28;20474;-71
2021/12/24 07:26:24;;;;;;;59.95;34.00;;;;;;;;;;4993714;28;20077;-72
2021/12/24 07:28:56;;;;;;;60.45;34.92;;;;;;;;;;4994848;28;20039;-71
2021/12/24 07:31:31;;;;;;;62.83;35.60;;;;;;;;;;4995027;28;20084;-72
2021/12/24 07:34:23;;;;;;;62.70;35.30;;;;;;;;;;4995272;28;20141;-72
2021/12/24 07:36:53;;;;;;;57.20;32.22;;;;;;;;;;4995031;28;20077;-73
2021/12/24 07:39:21;;;;;;;54.65;32.75;;;;;;;;;;4994814;28;20046;-72
2021/12/24 07:42:13;;;;;;;55.47;32.55;;;;;;;;;;4994789;28;20096;-72
2021/12/24 07:44:47;;;;;;;60.42;33.72;;;;;;;;;;4977422;28;20062;-72
2021/12/24 07:47:27;;;;;;;57.13;33.70;;;;;;;;;;4993578;28;20121;-72
2021/12/24 07:50:16;;;;;;;57.55;34.65;;;;;;;;;;4993702;28;20501;-71
2021/12/24 07:52:49;;;;;;;62.03;33.88;;;;;;;;;;4992766;28;20042;-71
2021/12/24 07:55:20;;;;;;;55.70;34.15;;;;;;;;;;4995178;28;20100;-70
2021/12/24 07:57:51;;;;;;;59.53;35.40;;;;;;;;;;4994403;28;20632;-70
2021/12/24 08:00:22;;;;;;;62.35;35.88;;;;;;;;;;4994638;28;20046;-71
2021/12/24 08:02:50;;;;;;;65.18;35.70;;;;;;;;;;4994660;28;20074;-70
2021/12/24 08:05:23;;;;;;;65.43;37.70;;;;;;;;;;4994172;28;20042;-70
2021/12/24 08:07:55;;;;;;;61.92;37.15;;;;;;;;;;4994396;28;20089;-70
2021/12/24 08:10:25;;;;;;;58.67;35.10;;;;;;;;;;4994529;28;20389;-70
2021/12/24 08:12:54;;;;;;;62.53;35.85;;;;;;;;;;4994166;28;20042;-71
2021/12/24 08:15:23;;;;;;;53.70;33.85;;;;;;;;;;4993945;28;20516;-70
2021/12/24 08:17:55;;;;;;;57.13;34.42;;;;;;;;;;4994389;28;20481;-70
2021/12/24 08:20:26;;;;;;;51.50;31.73;;;;;;;;;;4993295;28;20046;-70
2021/12/24 08:22:57;;;;;;;59.33;33.35;;;;;;;;;;4992734;28;20048;-70
2021/12/24 08:25:28;;;;;;;56.55;33.33;;;;;;;;;;4992679;28;20141;-70
2021/12/24 08:27:56;;;;;;;53.88;33.53;;;;;;;;;;4976512;28;20076;-70
2021/12/24 08:30:26;;;;;;;58.97;35.08;;;;;;;;;;4993536;28;20490;-71
2021/12/24 08:33:00;;;;;;;55.50;32.60;;;;;;;;;;4992647;28;20470;-70
2021/12/24 08:35:30;;;;;;;57.45;33.25;;;;;;;;;;4994510;28;20042;-70
2021/12/24 08:38:01;;;;;;;54.40;31.30;;;;;;;;;;4993066;28;20113;-71
2021/12/24 08:40:33;;;;;;;49.22;30.30;;;;;;;;;;4994034;28;20122;-71
2021/12/24 08:43:01;;;;;;;55.20;31.05;;;;;;;;;;4992671;28;20154;-71
2021/12/24 08:45:32;;;;;;;47.17;29.02;;;;;;;;;;4993581;28;20047;-71
2021/12/24 08:48:04;;;;;;;46.60;27.55;;;;;;;;;;4992946;28;20050;-71
2021/12/24 08:50:34;;;;;;;48.72;27.42;;;;;;;;;;4976314;28;20146;-71
2021/12/24 08:53:06;;;;;;;47.97;28.33;;;;;;;;;;4993954;28;20104;-71
2021/12/24 08:55:41;;;;;;;48.50;29.10;;;;;;;;;;4993751;28;20047;-71
2021/12/24 08:58:09;;;;;;;47.97;29.23;;;;;;;;;;4993731;28;20570;-70
2021/12/24 09:00:40;;;;;;;49.30;27.73;;;;;;;;;;4992230;28;20038;-72
2021/12/24 09:03:12;;;;;;;45.00;27.42;;;;;;;;;;4995070;28;20046;-73
2021/12/24 09:05:42;;;;;;;47.13;28.10;;;;;;;;;;4997700;28;20493;-72
2021/12/24 09:08:11;;;;;;;47.03;28.30;;;;;;;;;;5008048;28;20141;-74
2021/12/24 09:10:48;;;;;;;43.47;28.20;;;;;;;;;;4999559;28;20042;-73
2021/12/24 09:16:35;;;;;;;48.67;28.98;;;;;;;;;;4999666;28;20054;-73
2021/12/24 09:22:29;;;;;;;49.75;27.85;;;;;;;;;;4998309;28;20046;-73
2021/12/24 09:24:57;;;;;;;50.75;29.38;;;;;;;;;;4997589;28;20481;-73
2021/12/24 09:27:26;;;;;;;43.13;26.75;;;;;;;;;;4996062;28;20045;-73
2021/12/24 09:30:18;;;;;;;39.08;24.33;;;;;;;;;;4995858;28;20057;-73
2021/12/24 09:32:49;;;;;;;38.17;23.65;;;;;;;;;;4997323;28;20125;-73
2021/12/24 09:35:45;;;;;;;40.38;24.38;;;;;;;;;;4997490;28;20365;-72
2021/12/24 09:41:31;;;;;;;40.72;24.70;;;;;;;;;;5000649;28;20042;-73
2021/12/24 09:44:27;;;;;;;41.75;25.52;;;;;;;;;;5015724;28;20049;-73
2021/12/24 09:46:55;;;;;;;43.30;24.42;;;;;;;;;;4997304;28;20043;-71
2021/12/24 09:49:24;;;;;;;43.70;24.45;;;;;;;;;;4979416;28;20038;-71
2021/12/24 09:51:57;;;;;;;39.92;24.77;;;;;;;;;;4996974;28;20068;-71
2021/12/24 09:54:30;;;;;;;41.30;24.88;;;;;;;;;;4979152;28;20386;-72
2021/12/24 09:56:58;;;;;;;50.63;25.80;;;;;;;;;;4998655;28;20080;-73
2021/12/24 09:59:33;;;;;;;38.85;24.48;;;;;;;;;;5016331;28;20053;-70
2021/12/24 10:02:28;;;;;;;42.05;25.80;;;;;;;;;;4994431;28;20374;-70
2021/12/24 10:08:41;;;;;;;40.67;24.90;;;;;;;;;;5012031;28;20042;-70
2021/12/24 10:11:15;;;;;;;40.05;24.85;;;;;;;;;;5013579;28;20130;-70
2021/12/24 10:13:45;;;;;;;41.53;25.88;;;;;;;;;;5014276;28;20857;-71
2021/12/24 10:16:17;;;;;;;44.53;25.55;;;;;;;;;;5001944;28;20042;-70
2021/12/24 10:18:47;;;;;;;42.35;26.30;;;;;;;;;;5015492;28;20053;-71
2021/12/24 10:21:25;;;;;;;42.75;24.95;;;;;;;;;;4998094;28;20120;-71
2021/12/24 10:23:57;;;;;;;37.60;24.33;;;;;;;;;;5015836;28;20108;-71
2021/12/24 10:26:33;;;;;;;38.03;23.25;;;;;;;;;;4997787;28;20042;-71
2021/12/24 10:29:02;;;;;;;51.50;25.23;;;;;;;;;;5015233;28;20041;-71
2021/12/24 10:31:32;;;;;;;35.33;23.02;;;;;;;;;;5015461;28;20053;-69
2021/12/24 10:34:18;;;;;;;43.65;24.65;;;;;;;;;;5015235;28;20066;-70
2021/12/24 10:37:07;;;;;;;42.45;24.23;;;;;;;;;;5000112;28;20069;-69
2021/12/24 10:40:01;;;;;;;48.75;24.85;;;;;;;;;;5014993;28;20074;-69
2021/12/24 10:42:28;;;;;;;47.03;25.48;;;;;;;;;;5010775;28;20049;-69
2021/12/24 10:44:57;;;;;;;81.85;26.25;;;;;;;;;;5015076;28;20042;-70
2021/12/24 10:47:25;;;;;;;41.72;24.85;;;;;;;;;;5014715;28;20064;-69
2021/12/24 10:50:14;;;;;;;59.47;25.45;;;;;;;;;;4997277;28;20056;-70
2021/12/24 10:55:31;;;;;;;40.88;23.33;;;;;;;;;;5014903;28;20046;-70
2021/12/24 10:57:59;;;;;;;;;;;;;;;;;;4997386;28;20069;-70
2021/12/24 11:00:31;;;;;;;35.22;21.73;;;;;;;;;;5014582;28;19921;-70
2021/12/24 11:03:01;;;;;;;39.75;23.05;;;;;;;;;;4997169;28;20422;-69
2021/12/24 11:05:31;;;;;;;40.88;23.80;;;;;;;;;;4980867;28;20046;-69
2021/12/24 11:08:01;;;;;;;42.70;24.42;;;;;;;;;;5014320;28;20038;-69
2021/12/24 11:10:30;;;;;;;38.03;23.30;;;;;;;;;;4980913;28;20061;-70
2021/12/24 11:13:08;;;;;;;38.00;24.30;;;;;;;;;;5014762;28;20120;-69
2021/12/24 11:15:40;;;;;;;40.65;23.95;;;;;;;;;;5014868;28;20046;-70
2021/12/24 11:18:08;;;;;;;38.00;23.85;;;;;;;;;;4997553;28;20069;-69
2021/12/24 11:20:36;;;;;;;40.03;25.15;;;;;;;;;;4996677;28;20041;-69
2021/12/24 11:23:09;;;;;;;41.88;25.60;;;;;;;;;;5017330;28;20399;-69
2021/12/24 11:25:41;;;;;;;47.97;26.25;;;;;;;;;;5014692;28;20484;-69
2021/12/24 11:28:09;;;;;;;39.83;25.63;;;;;;;;;;5013879;28;20069;-69
2021/12/24 11:30:37;;;;;;;49.35;27.30;;;;;;;;;;5013857;28;20038;-70
2021/12/24 11:33:05;;;;;;;42.95;25.92;;;;;;;;;;5013561;28;20520;-69
2021/12/24 11:35:34;;;;;;;44.38;26.63;;;;;;;;;;4996628;28;20409;-69
2021/12/24 11:38:03;;;;;;;45.13;27.33;;;;;;;;;;5012771;28;20073;-69
2021/12/24 11:40:32;;;;;;;46.47;27.08;;;;;;;;;;5014785;28;20493;-69
2021/12/24 11:43:05;;;;;;;45.50;27.67;;;;;;;;;;4996243;28;20404;-69
2021/12/24 11:45:40;;;;;;;43.55;27.30;;;;;;;;;;4996840;28;20056;-69
2021/12/24 11:48:08;;;;;;;49.42;28.85;;;;;;;;;;5014322;28;20577;-70
2021/12/24 11:50:41;;;;;;;48.83;29.48;;;;;;;;;;4997391;28;20042;-69
2021/12/24 11:53:34;;;;;;;43.55;27.73;;;;;;;;;;4997707;28;20511;-71
2021/12/24 11:56:11;;;;;;;43.75;26.90;;;;;;;;;;5013601;28;20451;-71
2021/12/24 11:58:45;;;;;;;46.50;28.92;;;;;;;;;;5012367;28;20027;-71
2021/12/24 12:01:16;;;;;;;43.78;27.10;;;;;;;;;;4994810;28;20070;-69
2021/12/24 12:03:46;;;;;;;45.58;27.45;;;;;;;;;;5009829;28;20050;-70
2021/12/24 12:06:22;;;;;;;50.78;27.80;;;;;;;;;;5013186;28;20042;-70
2021/12/24 12:12:08;;;;;;;41.55;26.92;;;;;;;;;;5013544;28;20141;-76
2021/12/24 12:15:16;;;;;;;40.33;25.45;;;;;;;;;;5012494;28;20399;-70
2021/12/24 12:17:53;;;;;;;42.80;26.98;;;;;;;;;;5014024;28;20042;-69
2021/12/24 12:20:49;;;;;;;44.03;26.75;;;;;;;;;;5012364;28;20144;-70
2021/12/24 12:26:46;;;;;;;41.55;26.25;;;;;;;;;;4992507;28;20064;-70
2021/12/24 12:29:23;;;;;;;45.92;27.95;;;;;;;;;;4995881;28;20045;-70
2021/12/24 12:31:55;;;;;;;44.30;26.80;;;;;;;;;;5012400;28;20104;-69
2021/12/24 12:34:46;;;;;;;40.08;26.00;;;;;;;;;;5014223;28;20488;-69
2021/12/24 12:37:30;;;;;;;42.65;26.52;;;;;;;;;;5010175;28;20455;-69
2021/12/24 12:40:12;;;;;;;40.88;25.95;;;;;;;;;;5012480;28;20144;-69
2021/12/24 12:42:53;;;;;;;41.28;26.40;;;;;;;;;;5012458;28;20044;-69
2021/12/24 12:45:27;;;;;;;45.35;26.98;;;;;;;;;;5012847;28;20088;-70
2021/12/24 12:48:06;;;;;;;42.30;27.00;;;;;;;;;;5012276;28;20050;-70
2021/12/24 12:50:34;;;;;;;43.17;27.70;;;;;;;;;;5012058;28;20088;-68
2021/12/24 12:53:26;;;;;;;47.35;28.40;;;;;;;;;;5012105;28;20064;-70
2021/12/24 12:56:15;;;;;;;50.47;28.95;;;;;;;;;;5012018;28;20096;-71
2021/12/24 12:59:00;;;;;;;50.60;28.02;;;;;;;;;;5013328;28;20077;-70
2021/12/24 13:01:30;;;;;;;29.70;19.50;;;;;;;;;;5013529;28;20044;-70
2021/12/24 13:04:01;;;;;;;30.20;16.23;;;;;;;;;;5011998;28;20145;-70
2021/12/24 13:06:36;;;;;;;25.45;15.80;;;;;;;;;;5012070;28;20077;-71
2021/12/24 13:09:18;;;;;;;18.38;12.68;;;;;;;;;;5012510;28;20046;-74
2021/12/24 13:11:52;;;;;;;21.02;13.43;;;;;;;;;;5013725;28;20038;-73
2021/12/24 13:14:25;;;;;;;19.45;12.35;;;;;;;;;;5011919;28;20443;-73
2021/12/24 13:25:13;;;;;;;19.08;12.40;;;;;;;;;;5013437;28;20096;-73
2021/12/24 13:27:44;;;;;;;;;;;;;;;;;;5008511;28;20164;-73
2021/12/24 13:30:18;;;;;;;22.42;13.75;;;;;;;;;;5009693;28;19921;-73
2021/12/24 13:32:50;;;;;;;18.38;12.25;;;;;;;;;;5010562;28;20547;-73
2021/12/24 13:35:19;;;;;;;24.13;13.38;;;;;;;;;;4993988;28;20451;-73
2021/12/24 13:37:51;;;;;;;24.30;14.45;;;;;;;;;;5011685;28;20042;-73
2021/12/24 13:56:15;;;;;;;16.08;11.02;;;;;;;;;;4997997;28;20045;-73
2021/12/24 13:59:07;;;;;;;16.48;9.95;;;;;;;;;;5016275;28;20048;-72
2021/12/24 14:01:40;;;;;;;15.52;9.77;;;;;;;;;;4996107;28;20050;-72
2021/12/24 14:04:22;;;;;;;15.57;10.10;;;;;;;;;;4995785;28;20077;-72
2021/12/24 14:06:59;;;;;;;16.20;9.30;;;;;;;;;;4995642;28;20437;-72
2021/12/24 14:09:43;;;;;;;16.48;8.95;;;;;;;;;;4995372;28;20050;-72
2021/12/24 14:12:21;;;;;;;14.65;8.30;;;;;;;;;;4979110;28;20514;-72
2021/12/24 14:15:05;;;;;;;11.88;6.82;;;;;;;;;;5000166;28;20472;-71
2021/12/24 14:18:05;;;;;;;9.15;6.35;;;;;;;;;;5014351;28;20382;-72
2021/12/24 14:23:27;;;;;;;10.82;7.03;;;;;;;;;;5014745;28;20419;-72
2021/12/24 14:26:01;;;;;;;11.65;7.30;;;;;;;;;;4997305;28;20111;-72
2021/12/24 14:28:29;;;;;;;10.60;7.03;;;;;;;;;;5013562;28;20400;-72
2021/12/24 14:31:04;;;;;;;11.15;7.35;;;;;;;;;;5014759;28;20788;-72
2021/12/24 14:33:38;;;;;;;13.68;7.78;;;;;;;;;;5014850;28;20116;-72
2021/12/24 14:36:16;;;;;;;12.63;8.00;;;;;;;;;;4997496;28;20432;-71
2021/12/24 14:39:14;;;;;;;10.40;6.80;;;;;;;;;;5013950;28;20042;-71
2021/12/24 14:41:45;;;;;;;10.73;6.80;;;;;;;;;;4995173;28;20459;-71
2021/12/24 14:47:28;;;;;;;15.00;6.90;;;;;;;;;;4997848;28;20056;-71
2021/12/24 14:50:20;;;;;;;11.32;6.20;;;;;;;;;;4995470;28;20141;-71
2021/12/24 14:53:07;;;;;;;14.00;6.13;;;;;;;;;;4978442;28;20077;-71
2021/12/24 14:55:45;;;;;;;9.27;5.88;;;;;;;;;;4995947;28;20041;-71
2021/12/24 14:58:34;;;;;;;13.93;6.47;;;;;;;;;;4995785;28;20121;-71
2021/12/24 15:01:11;;;;;;;12.85;6.07;;;;;;;;;;4995095;28;20078;-71
2021/12/24 15:03:44;;;;;;;14.70;5.75;;;;;;;;;;4994301;28;20460;-71
2021/12/24 15:06:25;;;;;;;15.43;7.15;;;;;;;;;;4995571;28;20054;-71
2021/12/24 15:09:28;;;;;;;11.45;5.85;;;;;;;;;;4995584;28;20093;-71
2021/12/24 15:12:23;;;;;;;12.65;5.60;;;;;;;;;;4995396;28;20039;-71
2021/12/24 15:14:58;;;;;;;10.05;5.45;;;;;;;;;;4995687;28;20047;-71
2021/12/24 15:17:44;;;;;;;10.10;5.53;;;;;;;;;;4995908;28;20046;-71
2021/12/24 15:20:16;;;;;;;8.05;5.25;;;;;;;;;;4995563;28;20075;-70
2021/12/24 15:22:44;;;;;;;8.88;4.97;;;;;;;;;;4994558;28;20049;-70
2021/12/24 15:25:16;;;;;;;7.63;4.82;;;;;;;;;;5012314;28;20050;-71
2021/12/24 15:27:45;;;;;;;8.93;5.00;;;;;;;;;;5014234;28;20089;-71
2021/12/24 15:30:14;;;;;;;7.95;4.75;;;;;;;;;;5014730;28;20531;-71
2021/12/24 15:32:41;;;;;;;6.68;4.40;;;;;;;;;;4989513;28;20053;-72
2021/12/24 15:35:13;;;;;;;8.07;4.65;;;;;;;;;;5013336;28;20048;-73
2021/12/24 15:37:40;;;;;;;10.10;5.18;;;;;;;;;;5007906;28;20034;-70
2021/12/24 15:40:10;;;;;;;8.43;4.68;;;;;;;;;;5012098;28;20041;-70
2021/12/24 15:42:40;;;;;;;6.53;4.40;;;;;;;;;;5014128;28;20374;-71
2021/12/24 15:45:10;;;;;;;7.53;4.35;;;;;;;;;;5014585;28;20053;-71
2021/12/24 15:47:38;;;;;;;8.15;3.67;;;;;;;;;;4996480;28;20034;-69
2021/12/24 15:50:05;;;;;;;8.25;3.67;;;;;;;;;;4996756;28;20126;-69
2021/12/24 15:52:33;;;;;;;4.97;3.35;;;;;;;;;;5014497;28;20152;-70
2021/12/24 15:55:01;;;;;;;7.68;3.70;;;;;;;;;;5002397;28;20040;-70
2021/12/24 15:57:30;;;;;;;6.88;4.80;;;;;;;;;;5014370;28;20477;-71
2021/12/24 15:59:59;;;;;;;5.25;3.65;;;;;;;;;;5014141;28;20041;-70
2021/12/24 16:02:27;;;;;;;9.27;3.50;;;;;;;;;;5013968;28;20043;-71
2021/12/24 16:04:54;;;;;;;6.68;4.15;;;;;;;;;;5012774;28;20034;-71
2021/12/24 16:07:24;;;;;;;8.25;4.10;;;;;;;;;;5013848;28;20084;-71
2021/12/24 16:09:53;;;;;;;6.30;3.40;;;;;;;;;;5014105;28;20419;-71
2021/12/24 16:12:27;;;;;;;4.57;3.30;;;;;;;;;;5011471;28;20058;-71
2021/12/24 16:15:03;;;;;;;7.93;3.65;;;;;;;;;;5012223;28;20089;-71
2021/12/24 16:17:56;;;;;;;6.80;3.72;;;;;;;;;;5013497;28;20076;-70
2021/12/24 16:20:29;;;;;;;6.50;3.40;;;;;;;;;;5012006;28;20042;-71
2021/12/24 16:22:58;;;;;;;4.82;3.25;;;;;;;;;;4996050;28;20045;-71
2021/12/24 16:25:28;;;;;;;5.82;3.50;;;;;;;;;;5013713;28;20480;-70
2021/12/24 16:28:05;;;;;;;7.17;4.33;;;;;;;;;;5013774;28;20034;-72
2021/12/24 16:30:44;;;;;;;6.53;3.40;;;;;;;;;;5014530;28;20073;-73
2021/12/24 16:33:11;;;;;;;7.95;3.88;;;;;;;;;;5013427;28;20060;-74
2021/12/24 16:35:39;;;;;;;6.78;4.05;;;;;;;;;;5012611;28;20038;-70
2021/12/24 16:38:09;;;;;;;6.05;4.25;;;;;;;;;;5003666;28;20060;-72
2021/12/24 16:40:37;;;;;;;9.30;4.70;;;;;;;;;;5011160;28;20037;-70
2021/12/24 16:43:12;;;;;;;8.27;4.80;;;;;;;;;;5013217;28;20046;-70
2021/12/24 16:45:40;;;;;;;7.05;4.45;;;;;;;;;;5012031;28;20046;-70
2021/12/24 16:48:09;;;;;;;6.20;4.00;;;;;;;;;;5013060;28;20038;-70
2021/12/24 16:50:44;;;;;;;7.50;4.30;;;;;;;;;;4996711;28;22005;-70
2021/12/24 16:53:14;;;;;;;8.48;5.00;;;;;;;;;;4993802;28;20062;-69
2021/12/24 16:55:43;;;;;;;10.73;5.75;;;;;;;;;;4993614;28;20489;-70
2021/12/24 16:58:12;;;;;;;12.95;7.60;;;;;;;;;;4975953;28;20051;-70
2021/12/24 17:00:44;;;;;;;11.70;6.05;;;;;;;;;;4976182;28;20047;-70
2021/12/24 17:03:12;;;;;;;10.88;6.28;;;;;;;;;;4993772;28;20077;-70
2021/12/24 17:05:54;;;;;;;11.40;5.95;;;;;;;;;;4993941;28;20043;-71
2021/12/24 17:12:00;;;;;;;11.30;5.10;;;;;;;;;;5011626;28;20380;-70
2021/12/24 17:14:38;;;;;;;13.40;6.55;;;;;;;;;;5012778;28;20046;-70
2021/12/24 17:17:07;;;;;;;12.38;6.38;;;;;;;;;;5011675;28;20050;-70
2021/12/24 17:19:35;;;;;;;9.48;4.63;;;;;;;;;;5013348;28;20110;-70
2021/12/24 17:22:03;;;;;;;7.63;4.85;;;;;;;;;;5012711;28;20050;-71
2021/12/24 17:24:32;;;;;;;9.80;6.28;;;;;;;;;;5013779;28;20052;-72
2021/12/24 17:27:06;;;;;;;10.38;5.53;;;;;;;;;;5017200;28;20044;-71
2021/12/24 17:29:34;;;;;;;7.07;4.50;;;;;;;;;;5016630;28;20513;-70
2021/12/24 17:32:04;;;;;;;6.88;4.50;;;;;;;;;;5017272;28;20050;-71
2021/12/24 17:34:31;;;;;;;5.68;4.13;;;;;;;;;;5015922;28;20050;-70
2021/12/24 17:37:00;;;;;;;6.53;4.10;;;;;;;;;;5016276;28;20429;-70
2021/12/24 17:39:28;;;;;;;7.40;4.13;;;;;;;;;;5016289;28;20038;-69
2021/12/24 17:41:56;;;;;;;7.03;3.55;;;;;;;;;;5016353;28;20049;-71
2021/12/24 17:44:24;;;;;;;5.43;4.03;;;;;;;;;;5013711;28;20069;-71
2021/12/24 17:46:52;;;;;;;5.90;3.83;;;;;;;;;;5015122;28;20084;-71
2021/12/24 17:49:20;;;;;;;5.93;3.60;;;;;;;;;;5002250;28;20053;-71
2021/12/24 17:51:49;;;;;;;5.38;3.53;;;;;;;;;;4996770;28;20050;-70
2021/12/24 17:54:17;;;;;;;7.47;4.43;;;;;;;;;;4979551;28;20050;-73
2021/12/24 17:56:47;;;;;;;5.60;3.75;;;;;;;;;;4995485;28;20045;-71